sensor_id;sensor_type;location;lat;lon;timestamp;temperature;humidity
70336;SHT31;57756;47.408;18.940;2023-02-04T00:01:18;4.10;93.14
70336;SHT31;57756;47.408;18.940;2023-02-04T00:03:43;4.10;93.20
70336;SHT31;57756;47.408;18.940;2023-02-04T00:06:09;4.09;93.27
70336;SHT31;57756;47.408;18.940;2023-02-04T00:08:34;4.09;93.62
70336;SHT31;57756;47.408;18.940;2023-02-04T00:11:02;4.12;93.55
70336;SHT31;57756;47.408;18.940;2023-02-04T00:13:28;4.10;93.44
70336;SHT31;57756;47.408;18.940;2023-02-04T00:15:53;4.06;93.59
70336;SHT31;57756;47.408;18.940;2023-02-04T00:18:19;4.06;93.75
70336;SHT31;57756;47.408;18.940;2023-02-04T00:20:44;4.12;93.34
70336;SHT31;57756;47.408;18.940;2023-02-04T00:23:10;4.09;93.71
70336;SHT31;57756;47.408;18.940;2023-02-04T00:25:36;4.05;93.58
70336;SHT31;57756;47.408;18.940;2023-02-04T00:28:01;4.12;93.25
70336;SHT31;57756;47.408;18.940;2023-02-04T00:30:28;4.05;93.61
70336;SHT31;57756;47.408;18.940;2023-02-04T00:32:53;4.05;93.65
70336;SHT31;57756;47.408;18.940;2023-02-04T00:35:24;4.06;93.55
70336;SHT31;57756;47.408;18.940;2023-02-04T00:37:50;4.17;92.83
70336;SHT31;57756;47.408;18.940;2023-02-04T00:40:16;4.12;93.23
70336;SHT31;57756;47.408;18.940;2023-02-04T00:42:41;4.09;93.45
70336;SHT31;57756;47.408;18.940;2023-02-04T00:45:08;4.10;93.44
70336;SHT31;57756;47.408;18.940;2023-02-04T00:47:34;4.13;93.18
70336;SHT31;57756;47.408;18.940;2023-02-04T00:50:00;4.09;93.55
70336;SHT31;57756;47.408;18.940;2023-02-04T00:52:25;4.07;93.66
70336;SHT31;57756;47.408;18.940;2023-02-04T00:54:51;4.01;93.85
70336;SHT31;57756;47.408;18.940;2023-02-04T00:57:17;4.05;93.44
70336;SHT31;57756;47.408;18.940;2023-02-04T00:59:43;4.06;93.48
70336;SHT31;57756;47.408;18.940;2023-02-04T01:02:08;4.05;93.79
70336;SHT31;57756;47.408;18.940;2023-02-04T01:04:34;4.01;93.73
70336;SHT31;57756;47.408;18.940;2023-02-04T01:06:59;4.06;93.44
70336;SHT31;57756;47.408;18.940;2023-02-04T01:09:25;3.98;94.25
70336;SHT31;57756;47.408;18.940;2023-02-04T01:11:50;3.95;93.86
70336;SHT31;57756;47.408;18.940;2023-02-04T01:14:16;4.05;93.37
70336;SHT31;57756;47.408;18.940;2023-02-04T01:16:41;4.06;93.51
70336;SHT31;57756;47.408;18.940;2023-02-04T01:19:07;4.09;93.29
70336;SHT31;57756;47.408;18.940;2023-02-04T01:21:32;4.14;93.11
70336;SHT31;57756;47.408;18.940;2023-02-04T01:23:58;4.12;93.59
70336;SHT31;57756;47.408;18.940;2023-02-04T01:26:23;4.19;93.07
70336;SHT31;57756;47.408;18.940;2023-02-04T01:28:49;4.19;93.21
70336;SHT31;57756;47.408;18.940;2023-02-04T01:31:15;4.28;92.88
70336;SHT31;57756;47.408;18.940;2023-02-04T01:33:40;4.24;93.00
70336;SHT31;57756;47.408;18.940;2023-02-04T01:36:06;4.28;93.13
70336;SHT31;57756;47.408;18.940;2023-02-04T01:38:32;4.28;93.51
70336;SHT31;57756;47.408;18.940;2023-02-04T01:40:58;4.36;93.21
70336;SHT31;57756;47.408;18.940;2023-02-04T01:43:25;4.32;93.09
70336;SHT31;57756;47.408;18.940;2023-02-04T01:45:51;4.33;93.05
70336;SHT31;57756;47.408;18.940;2023-02-04T01:48:18;4.40;92.39
70336;SHT31;57756;47.408;18.940;2023-02-04T01:50:52;4.36;92.72
70336;SHT31;57756;47.408;18.940;2023-02-04T01:53:22;4.43;91.69
70336;SHT31;57756;47.408;18.940;2023-02-04T01:55:49;4.43;92.19
70336;SHT31;57756;47.408;18.940;2023-02-04T01:58:15;4.46;91.55
70336;SHT31;57756;47.408;18.940;2023-02-04T02:00:41;4.43;91.96
70336;SHT31;57756;47.408;18.940;2023-02-04T02:03:07;4.48;90.93
70336;SHT31;57756;47.408;18.940;2023-02-04T02:05:47;4.58;90.71
70336;SHT31;57756;47.408;18.940;2023-02-04T02:08:14;4.56;91.00
70336;SHT31;57756;47.408;18.940;2023-02-04T02:10:43;4.58;90.91
70336;SHT31;57756;47.408;18.940;2023-02-04T02:13:11;4.62;91.05
70336;SHT31;57756;47.408;18.940;2023-02-04T02:15:38;4.60;90.75
70336;SHT31;57756;47.408;18.940;2023-02-04T02:18:03;4.58;91.07
70336;SHT31;57756;47.408;18.940;2023-02-04T02:20:29;4.65;90.84
70336;SHT31;57756;47.408;18.940;2023-02-04T02:23:21;4.71;90.54
70336;SHT31;57756;47.408;18.940;2023-02-04T02:25:48;4.69;90.53
70336;SHT31;57756;47.408;18.940;2023-02-04T02:28:19;4.65;90.49
70336;SHT31;57756;47.408;18.940;2023-02-04T02:30:46;4.72;90.52
70336;SHT31;57756;47.408;18.940;2023-02-04T02:33:15;4.71;90.34
70336;SHT31;57756;47.408;18.940;2023-02-04T02:35:42;4.78;90.02
70336;SHT31;57756;47.408;18.940;2023-02-04T02:38:09;4.78;90.40
70336;SHT31;57756;47.408;18.940;2023-02-04T02:40:35;4.75;90.81
70336;SHT31;57756;47.408;18.940;2023-02-04T02:43:01;4.67;91.16
70336;SHT31;57756;47.408;18.940;2023-02-04T02:45:29;4.65;90.94
70336;SHT31;57756;47.408;18.940;2023-02-04T02:47:58;4.65;91.22
70336;SHT31;57756;47.408;18.940;2023-02-04T02:50:26;4.65;90.88
70336;SHT31;57756;47.408;18.940;2023-02-04T02:52:53;4.72;90.26
70336;SHT31;57756;47.408;18.940;2023-02-04T02:55:21;4.67;90.37
70336;SHT31;57756;47.408;18.940;2023-02-04T02:57:49;4.64;90.45
70336;SHT31;57756;47.408;18.940;2023-02-04T03:00:19;4.71;90.24
70336;SHT31;57756;47.408;18.940;2023-02-04T03:02:51;4.77;89.52
70336;SHT31;57756;47.408;18.940;2023-02-04T03:05:17;4.82;89.41
70336;SHT31;57756;47.408;18.940;2023-02-04T03:07:43;4.79;89.77
70336;SHT31;57756;47.408;18.940;2023-02-04T03:10:08;4.82;89.74
70336;SHT31;57756;47.408;18.940;2023-02-04T03:12:34;4.85;89.50
70336;SHT31;57756;47.408;18.940;2023-02-04T03:14:59;4.88;89.45
70336;SHT31;57756;47.408;18.940;2023-02-04T03:17:25;4.92;89.11
70336;SHT31;57756;47.408;18.940;2023-02-04T03:19:51;4.87;89.48
70336;SHT31;57756;47.408;18.940;2023-02-04T03:22:16;4.81;90.13
70336;SHT31;57756;47.408;18.940;2023-02-04T03:24:42;4.84;89.56
70336;SHT31;57756;47.408;18.940;2023-02-04T03:27:07;4.82;90.19
70336;SHT31;57756;47.408;18.940;2023-02-04T03:29:33;4.87;89.83
70336;SHT31;57756;47.408;18.940;2023-02-04T03:31:58;4.89;89.34
70336;SHT31;57756;47.408;18.940;2023-02-04T03:34:24;4.92;89.53
70336;SHT31;57756;47.408;18.940;2023-02-04T03:36:50;4.96;89.07
70336;SHT31;57756;47.408;18.940;2023-02-04T03:39:16;5.00;89.49
70336;SHT31;57756;47.408;18.940;2023-02-04T03:41:41;5.00;89.48
70336;SHT31;57756;47.408;18.940;2023-02-04T03:44:07;5.02;89.65
70336;SHT31;57756;47.408;18.940;2023-02-04T03:46:32;5.00;89.79
70336;SHT31;57756;47.408;18.940;2023-02-04T03:48:58;4.99;89.94
70336;SHT31;57756;47.408;18.940;2023-02-04T03:51:23;4.93;90.20
70336;SHT31;57756;47.408;18.940;2023-02-04T03:53:49;4.93;90.68
70336;SHT31;57756;47.408;18.940;2023-02-04T03:56:15;4.87;90.97
70336;SHT31;57756;47.408;18.940;2023-02-04T03:58:40;4.85;91.38
70336;SHT31;57756;47.408;18.940;2023-02-04T04:01:06;4.88;90.86
70336;SHT31;57756;47.408;18.940;2023-02-04T04:03:31;4.95;90.56
70336;SHT31;57756;47.408;18.940;2023-02-04T04:05:57;4.92;90.59
70336;SHT31;57756;47.408;18.940;2023-02-04T04:08:22;4.87;91.43
70336;SHT31;57756;47.408;18.940;2023-02-04T04:10:48;4.93;90.78
70336;SHT31;57756;47.408;18.940;2023-02-04T04:13:13;4.84;91.76
70336;SHT31;57756;47.408;18.940;2023-02-04T04:15:39;4.85;91.38
70336;SHT31;57756;47.408;18.940;2023-02-04T04:18:04;4.85;91.18
70336;SHT31;57756;47.408;18.940;2023-02-04T04:20:30;4.89;90.49
70336;SHT31;57756;47.408;18.940;2023-02-04T04:22:55;4.89;90.84
70336;SHT31;57756;47.408;18.940;2023-02-04T04:25:21;4.87;91.20
70336;SHT31;57756;47.408;18.940;2023-02-04T04:27:46;4.99;90.35
70336;SHT31;57756;47.408;18.940;2023-02-04T04:30:12;5.00;90.06
70336;SHT31;57756;47.408;18.940;2023-02-04T04:32:38;4.98;90.08
70336;SHT31;57756;47.408;18.940;2023-02-04T04:35:03;5.04;89.62
70336;SHT31;57756;47.408;18.940;2023-02-04T04:37:29;5.04;89.49
70336;SHT31;57756;47.408;18.940;2023-02-04T04:39:55;5.08;89.20
70336;SHT31;57756;47.408;18.940;2023-02-04T04:42:20;5.19;88.17
70336;SHT31;57756;47.408;18.940;2023-02-04T04:44:46;5.12;88.84
70336;SHT31;57756;47.408;18.940;2023-02-04T04:47:11;5.06;89.08
70336;SHT31;57756;47.408;18.940;2023-02-04T04:49:37;5.19;87.70
70336;SHT31;57756;47.408;18.940;2023-02-04T04:52:02;5.22;87.95
70336;SHT31;57756;47.408;18.940;2023-02-04T04:54:28;5.22;87.72
70336;SHT31;57756;47.408;18.940;2023-02-04T04:56:54;5.22;87.63
70336;SHT31;57756;47.408;18.940;2023-02-04T04:59:19;5.18;87.62
70336;SHT31;57756;47.408;18.940;2023-02-04T05:01:45;5.25;87.30
70336;SHT31;57756;47.408;18.940;2023-02-04T05:04:10;5.11;88.18
70336;SHT31;57756;47.408;18.940;2023-02-04T05:06:36;5.18;87.50
70336;SHT31;57756;47.408;18.940;2023-02-04T05:09:02;5.23;87.07
70336;SHT31;57756;47.408;18.940;2023-02-04T05:11:27;5.16;87.89
70336;SHT31;57756;47.408;18.940;2023-02-04T05:13:53;5.22;86.95
70336;SHT31;57756;47.408;18.940;2023-02-04T05:16:18;5.16;87.54
70336;SHT31;57756;47.408;18.940;2023-02-04T05:18:44;5.09;87.99
70336;SHT31;57756;47.408;18.940;2023-02-04T05:21:09;5.16;86.98
70336;SHT31;57756;47.408;18.940;2023-02-04T05:23:35;5.23;86.42
70336;SHT31;57756;47.408;18.940;2023-02-04T05:26:00;5.29;86.52
70336;SHT31;57756;47.408;18.940;2023-02-04T05:28:26;5.33;85.64
70336;SHT31;57756;47.408;18.940;2023-02-04T05:30:51;5.20;86.60
70336;SHT31;57756;47.408;18.940;2023-02-04T05:33:17;5.25;86.32
70336;SHT31;57756;47.408;18.940;2023-02-04T05:35:43;5.22;86.57
70336;SHT31;57756;47.408;18.940;2023-02-04T05:38:08;5.27;86.25
70336;SHT31;57756;47.408;18.940;2023-02-04T05:40:34;5.23;86.73
70336;SHT31;57756;47.408;18.940;2023-02-04T05:42:59;5.20;87.28
70336;SHT31;57756;47.408;18.940;2023-02-04T05:45:25;5.23;87.32
70336;SHT31;57756;47.408;18.940;2023-02-04T05:47:51;5.20;88.87
70336;SHT31;57756;47.408;18.940;2023-02-04T05:50:17;5.05;90.30
70336;SHT31;57756;47.408;18.940;2023-02-04T05:52:43;4.88;92.37
70336;SHT31;57756;47.408;18.940;2023-02-04T05:55:10;4.71;93.11
70336;SHT31;57756;47.408;18.940;2023-02-04T05:57:36;4.64;92.87
70336;SHT31;57756;47.408;18.940;2023-02-04T06:00:02;4.57;91.93
70336;SHT31;57756;47.408;18.940;2023-02-04T06:02:28;4.51;91.08
70336;SHT31;57756;47.408;18.940;2023-02-04T06:04:53;4.41;90.25
70336;SHT31;57756;47.408;18.940;2023-02-04T06:07:19;4.34;90.23
70336;SHT31;57756;47.408;18.940;2023-02-04T06:09:44;4.28;89.77
70336;SHT31;57756;47.408;18.940;2023-02-04T06:12:10;4.26;89.04
70336;SHT31;57756;47.408;18.940;2023-02-04T06:14:35;4.20;88.60
70336;SHT31;57756;47.408;18.940;2023-02-04T06:17:01;4.17;88.20
70336;SHT31;57756;47.408;18.940;2023-02-04T06:19:26;4.14;88.38
70336;SHT31;57756;47.408;18.940;2023-02-04T06:21:52;4.12;88.71
70336;SHT31;57756;47.408;18.940;2023-02-04T06:24:17;4.07;88.36
70336;SHT31;57756;47.408;18.940;2023-02-04T06:26:43;4.13;87.19
70336;SHT31;57756;47.408;18.940;2023-02-04T06:29:08;4.07;87.18
70336;SHT31;57756;47.408;18.940;2023-02-04T06:31:34;4.06;86.73
70336;SHT31;57756;47.408;18.940;2023-02-04T06:34:03;4.01;86.29
70336;SHT31;57756;47.408;18.940;2023-02-04T06:36:29;4.03;85.99
70336;SHT31;57756;47.408;18.940;2023-02-04T06:38:55;3.92;86.57
70336;SHT31;57756;47.408;18.940;2023-02-04T06:41:20;3.95;85.73
70336;SHT31;57756;47.408;18.940;2023-02-04T06:43:46;3.93;85.90
70336;SHT31;57756;47.408;18.940;2023-02-04T06:46:11;3.86;86.97
70336;SHT31;57756;47.408;18.940;2023-02-04T06:48:37;3.91;85.35
70336;SHT31;57756;47.408;18.940;2023-02-04T06:51:02;3.96;85.00
70336;SHT31;57756;47.408;18.940;2023-02-04T06:53:28;3.89;85.89
70336;SHT31;57756;47.408;18.940;2023-02-04T06:55:53;3.98;85.15
70336;SHT31;57756;47.408;18.940;2023-02-04T06:58:19;3.99;85.36
70336;SHT31;57756;47.408;18.940;2023-02-04T07:00:44;3.99;85.04
70336;SHT31;57756;47.408;18.940;2023-02-04T07:03:10;4.01;83.75
70336;SHT31;57756;47.408;18.940;2023-02-04T07:05:35;4.01;83.42
70336;SHT31;57756;47.408;18.940;2023-02-04T07:08:01;3.99;83.65
70336;SHT31;57756;47.408;18.940;2023-02-04T07:10:26;3.89;83.50
70336;SHT31;57756;47.408;18.940;2023-02-04T07:12:52;3.89;82.85
70336;SHT31;57756;47.408;18.940;2023-02-04T07:15:17;3.82;82.31
70336;SHT31;57756;47.408;18.940;2023-02-04T07:17:43;3.68;84.05
70336;SHT31;57756;47.408;18.940;2023-02-04T07:20:09;3.54;84.36
70336;SHT31;57756;47.408;18.940;2023-02-04T07:22:35;3.45;84.65
70336;SHT31;57756;47.408;18.940;2023-02-04T07:25:01;3.31;85.80
70336;SHT31;57756;47.408;18.940;2023-02-04T07:27:26;3.23;86.32
70336;SHT31;57756;47.408;18.940;2023-02-04T07:29:52;3.16;87.20
70336;SHT31;57756;47.408;18.940;2023-02-04T07:32:17;3.10;87.18
70336;SHT31;57756;47.408;18.940;2023-02-04T07:34:43;3.07;87.67
70336;SHT31;57756;47.408;18.940;2023-02-04T07:37:08;3.09;86.68
70336;SHT31;57756;47.408;18.940;2023-02-04T07:39:34;3.12;85.71
70336;SHT31;57756;47.408;18.940;2023-02-04T07:41:59;3.15;85.69
70336;SHT31;57756;47.408;18.940;2023-02-04T07:44:25;3.38;83.04
70336;SHT31;57756;47.408;18.940;2023-02-04T07:46:50;3.79;81.08
70336;SHT31;57756;47.408;18.940;2023-02-04T07:49:16;4.06;80.07
70336;SHT31;57756;47.408;18.940;2023-02-04T07:51:41;4.29;78.88
70336;SHT31;57756;47.408;18.940;2023-02-04T07:54:07;4.53;79.28
70336;SHT31;57756;47.408;18.940;2023-02-04T07:56:33;4.84;78.40
70336;SHT31;57756;47.408;18.940;2023-02-04T07:58:58;4.39;79.23
70336;SHT31;57756;47.408;18.940;2023-02-04T08:01:24;4.19;79.90
70336;SHT31;57756;47.408;18.940;2023-02-04T08:03:49;3.98;79.78
70336;SHT31;57756;47.408;18.940;2023-02-04T08:06:15;3.93;80.04
70336;SHT31;57756;47.408;18.940;2023-02-04T08:08:40;3.99;80.06
70336;SHT31;57756;47.408;18.940;2023-02-04T08:11:06;3.96;79.32
70336;SHT31;57756;47.408;18.940;2023-02-04T08:13:31;3.78;79.41
70336;SHT31;57756;47.408;18.940;2023-02-04T08:15:57;3.68;79.33
70336;SHT31;57756;47.408;18.940;2023-02-04T08:18:22;3.54;79.46
70336;SHT31;57756;47.408;18.940;2023-02-04T08:20:49;3.51;79.15
70336;SHT31;57756;47.408;18.940;2023-02-04T08:23:15;3.71;79.01
70336;SHT31;57756;47.408;18.940;2023-02-04T08:25:40;3.85;78.85
70336;SHT31;57756;47.408;18.940;2023-02-04T08:28:06;3.82;78.19
70336;SHT31;57756;47.408;18.940;2023-02-04T08:30:31;3.81;78.33
70336;SHT31;57756;47.408;18.940;2023-02-04T08:32:57;3.75;78.63
70336;SHT31;57756;47.408;18.940;2023-02-04T08:35:22;3.79;78.16
70336;SHT31;57756;47.408;18.940;2023-02-04T08:37:48;3.74;78.48
70336;SHT31;57756;47.408;18.940;2023-02-04T08:40:14;3.72;78.37
70336;SHT31;57756;47.408;18.940;2023-02-04T08:42:39;3.75;78.79
70336;SHT31;57756;47.408;18.940;2023-02-04T08:45:05;3.71;78.54
70336;SHT31;57756;47.408;18.940;2023-02-04T08:47:30;3.68;78.09
70336;SHT31;57756;47.408;18.940;2023-02-04T08:49:56;3.61;78.38
70336;SHT31;57756;47.408;18.940;2023-02-04T08:52:22;3.55;78.71
70336;SHT31;57756;47.408;18.940;2023-02-04T08:54:48;3.58;78.64
70336;SHT31;57756;47.408;18.940;2023-02-04T08:57:13;3.55;78.03
70336;SHT31;57756;47.408;18.940;2023-02-04T08:59:39;3.53;78.12
70336;SHT31;57756;47.408;18.940;2023-02-04T09:02:04;3.81;77.96
70336;SHT31;57756;47.408;18.940;2023-02-04T09:04:30;3.74;77.73
70336;SHT31;57756;47.408;18.940;2023-02-04T09:06:56;4.26;76.85
70336;SHT31;57756;47.408;18.940;2023-02-04T09:09:21;4.44;75.72
70336;SHT31;57756;47.408;18.940;2023-02-04T09:11:47;4.58;75.08
70336;SHT31;57756;47.408;18.940;2023-02-04T09:14:12;5.02;74.76
70336;SHT31;57756;47.408;18.940;2023-02-04T09:16:38;5.19;73.01
70336;SHT31;57756;47.408;18.940;2023-02-04T09:19:03;5.36;72.79
70336;SHT31;57756;47.408;18.940;2023-02-04T09:21:31;5.48;72.60
70336;SHT31;57756;47.408;18.940;2023-02-04T09:23:56;5.58;71.74
70336;SHT31;57756;47.408;18.940;2023-02-04T09:26:22;5.74;71.35
70336;SHT31;57756;47.408;18.940;2023-02-04T09:28:47;5.91;71.63
70336;SHT31;57756;47.408;18.940;2023-02-04T09:31:14;5.94;70.79
70336;SHT31;57756;47.408;18.940;2023-02-04T09:33:40;6.08;70.15
70336;SHT31;57756;47.408;18.940;2023-02-04T09:36:06;6.08;70.26
70336;SHT31;57756;47.408;18.940;2023-02-04T09:38:31;6.44;70.59
70336;SHT31;57756;47.408;18.940;2023-02-04T09:41:00;6.33;68.83
70336;SHT31;57756;47.408;18.940;2023-02-04T09:43:32;6.47;69.30
70336;SHT31;57756;47.408;18.940;2023-02-04T09:45:58;6.40;68.47
70336;SHT31;57756;47.408;18.940;2023-02-04T09:48:24;6.54;69.03
70336;SHT31;57756;47.408;18.940;2023-02-04T09:50:51;6.60;67.09
70336;SHT31;57756;47.408;18.940;2023-02-04T09:53:22;6.58;67.94
70336;SHT31;57756;47.408;18.940;2023-02-04T09:55:49;6.89;67.20
70336;SHT31;57756;47.408;18.940;2023-02-04T09:58:20;7.25;66.18
70336;SHT31;57756;47.408;18.940;2023-02-04T10:03:31;6.97;66.41
70336;SHT31;57756;47.408;18.940;2023-02-04T10:05:57;6.26;66.36
70336;SHT31;57756;47.408;18.940;2023-02-04T10:08:30;5.88;68.40
70336;SHT31;57756;47.408;18.940;2023-02-04T10:10:57;5.65;69.05
70336;SHT31;57756;47.408;18.940;2023-02-04T10:13:32;5.53;70.05
70336;SHT31;57756;47.408;18.940;2023-02-04T10:16:00;5.33;68.77
70336;SHT31;57756;47.408;18.940;2023-02-04T10:18:31;5.23;70.01
70336;SHT31;57756;47.408;18.940;2023-02-04T10:21:28;5.02;70.19
70336;SHT31;57756;47.408;18.940;2023-02-04T10:23:56;4.92;70.79
70336;SHT31;57756;47.408;18.940;2023-02-04T10:26:23;4.74;71.21
70336;SHT31;57756;47.408;18.940;2023-02-04T10:28:49;4.61;71.41
70336;SHT31;57756;47.408;18.940;2023-02-04T10:34:22;4.36;74.16
70336;SHT31;57756;47.408;18.940;2023-02-04T10:36:49;4.41;73.79
70336;SHT31;57756;47.408;18.940;2023-02-04T10:39:18;4.50;73.22
70336;SHT31;57756;47.408;18.940;2023-02-04T10:41:57;4.47;73.50
70336;SHT31;57756;47.408;18.940;2023-02-04T10:44:31;4.67;71.93
70336;SHT31;57756;47.408;18.940;2023-02-04T10:47:02;4.68;72.09
70336;SHT31;57756;47.408;18.940;2023-02-04T10:49:28;4.75;73.06
70336;SHT31;57756;47.408;18.940;2023-02-04T10:51:54;4.71;72.89
70336;SHT31;57756;47.408;18.940;2023-02-04T10:54:22;4.64;72.46
70336;SHT31;57756;47.408;18.940;2023-02-04T10:56:59;4.82;71.09
70336;SHT31;57756;47.408;18.940;2023-02-04T10:59:28;4.84;71.82
70336;SHT31;57756;47.408;18.940;2023-02-04T11:01:58;4.64;70.75
70336;SHT31;57756;47.408;18.940;2023-02-04T11:04:25;4.64;71.93
70336;SHT31;57756;47.408;18.940;2023-02-04T11:06:51;4.67;72.20
70336;SHT31;57756;47.408;18.940;2023-02-04T11:09:18;4.89;71.95
70336;SHT31;57756;47.408;18.940;2023-02-04T11:11:45;4.84;71.26
70336;SHT31;57756;47.408;18.940;2023-02-04T11:14:26;4.74;71.27
70336;SHT31;57756;47.408;18.940;2023-02-04T11:16:53;4.72;71.88
70336;SHT31;57756;47.408;18.940;2023-02-04T11:19:34;4.84;71.63
70336;SHT31;57756;47.408;18.940;2023-02-04T11:22:50;4.89;71.00
70336;SHT31;57756;47.408;18.940;2023-02-04T11:24:50;4.72;69.20
70336;SHT31;57756;47.408;18.940;2023-02-04T11:27:22;4.69;69.29
70336;SHT31;57756;47.408;18.940;2023-02-04T11:29:49;4.61;70.06
70336;SHT31;57756;47.408;18.940;2023-02-04T11:32:29;4.56;69.01
70336;SHT31;57756;47.408;18.940;2023-02-04T11:35:07;4.62;68.95
70336;SHT31;57756;47.408;18.940;2023-02-04T11:37:34;4.72;68.52
70336;SHT31;57756;47.408;18.940;2023-02-04T11:40:00;4.79;69.14
70336;SHT31;57756;47.408;18.940;2023-02-04T11:42:38;4.95;68.30
70336;SHT31;57756;47.408;18.940;2023-02-04T11:45:13;4.99;68.16
70336;SHT31;57756;47.408;18.940;2023-02-04T11:47:40;4.96;69.49
70336;SHT31;57756;47.408;18.940;2023-02-04T11:50:20;5.06;69.94
70336;SHT31;57756;47.408;18.940;2023-02-04T11:52:46;5.00;69.13
70336;SHT31;57756;47.408;18.940;2023-02-04T11:55:12;4.82;69.16
70336;SHT31;57756;47.408;18.940;2023-02-04T11:57:40;4.72;69.52
70336;SHT31;57756;47.408;18.940;2023-02-04T12:00:12;4.77;69.36
70336;SHT31;57756;47.408;18.940;2023-02-04T12:02:57;4.68;69.43
70336;SHT31;57756;47.408;18.940;2023-02-04T12:05:38;4.61;68.87
70336;SHT31;57756;47.408;18.940;2023-02-04T12:08:31;4.64;69.12
70336;SHT31;57756;47.408;18.940;2023-02-04T12:13:23;4.58;69.15
70336;SHT31;57756;47.408;18.940;2023-02-04T12:16:04;4.57;68.95
70336;SHT31;57756;47.408;18.940;2023-02-04T12:18:31;4.68;69.06
70336;SHT31;57756;47.408;18.940;2023-02-04T12:20:58;4.64;67.99
70336;SHT31;57756;47.408;18.940;2023-02-04T12:23:25;4.60;69.56
70336;SHT31;57756;47.408;18.940;2023-02-04T12:25:51;4.61;68.11
70336;SHT31;57756;47.408;18.940;2023-02-04T12:28:17;4.47;68.18
70336;SHT31;57756;47.408;18.940;2023-02-04T12:30:42;4.46;69.57
70336;SHT31;57756;47.408;18.940;2023-02-04T12:33:08;4.47;68.90
70336;SHT31;57756;47.408;18.940;2023-02-04T12:35:34;4.47;69.35
70336;SHT31;57756;47.408;18.940;2023-02-04T12:37:59;4.47;69.15
70336;SHT31;57756;47.408;18.940;2023-02-04T12:40:25;4.47;69.34
70336;SHT31;57756;47.408;18.940;2023-02-04T12:42:51;4.50;68.95
70336;SHT31;57756;47.408;18.940;2023-02-04T12:45:17;4.47;68.04
70336;SHT31;57756;47.408;18.940;2023-02-04T12:47:42;4.40;66.80
70336;SHT31;57756;47.408;18.940;2023-02-04T12:50:10;4.40;67.36
70336;SHT31;57756;47.408;18.940;2023-02-04T12:52:36;4.32;66.85
70336;SHT31;57756;47.408;18.940;2023-02-04T12:55:03;4.30;67.08
70336;SHT31;57756;47.408;18.940;2023-02-04T12:57:30;4.30;65.34
70336;SHT31;57756;47.408;18.940;2023-02-04T12:59:56;4.24;66.15
70336;SHT31;57756;47.408;18.940;2023-02-04T13:02:24;4.23;65.66
70336;SHT31;57756;47.408;18.940;2023-02-04T13:04:50;4.21;66.83
70336;SHT31;57756;47.408;18.940;2023-02-04T13:07:15;4.19;66.32
70336;SHT31;57756;47.408;18.940;2023-02-04T13:09:41;4.16;67.41
70336;SHT31;57756;47.408;18.940;2023-02-04T13:12:06;4.05;67.89
70336;SHT31;57756;47.408;18.940;2023-02-04T13:14:32;3.96;68.81
70336;SHT31;57756;47.408;18.940;2023-02-04T13:16:58;3.89;68.56
70336;SHT31;57756;47.408;18.940;2023-02-04T13:19:24;3.85;68.91
70336;SHT31;57756;47.408;18.940;2023-02-04T13:21:49;3.78;68.29
70336;SHT31;57756;47.408;18.940;2023-02-04T13:24:15;3.82;69.22
70336;SHT31;57756;47.408;18.940;2023-02-04T13:26:41;3.74;67.77
70336;SHT31;57756;47.408;18.940;2023-02-04T13:29:07;3.70;67.66
70336;SHT31;57756;47.408;18.940;2023-02-04T13:31:32;3.65;66.92
70336;SHT31;57756;47.408;18.940;2023-02-04T13:33:58;3.61;67.50
70336;SHT31;57756;47.408;18.940;2023-02-04T13:36:23;3.65;66.45
70336;SHT31;57756;47.408;18.940;2023-02-04T13:38:51;3.65;66.24
70336;SHT31;57756;47.408;18.940;2023-02-04T13:41:17;3.61;67.07
70336;SHT31;57756;47.408;18.940;2023-02-04T13:43:42;3.68;66.14
70336;SHT31;57756;47.408;18.940;2023-02-04T13:46:08;3.62;63.44
70336;SHT31;57756;47.408;18.940;2023-02-04T13:48:33;3.54;62.16
70336;SHT31;57756;47.408;18.940;2023-02-04T13:50:59;3.53;63.00
70336;SHT31;57756;47.408;18.940;2023-02-04T13:53:25;3.48;62.85
70336;SHT31;57756;47.408;18.940;2023-02-04T13:55:56;3.47;62.46
70336;SHT31;57756;47.408;18.940;2023-02-04T13:58:22;3.40;61.73
70336;SHT31;57756;47.408;18.940;2023-02-04T14:00:47;3.37;61.94
70336;SHT31;57756;47.408;18.940;2023-02-04T14:03:13;3.38;60.44
70336;SHT31;57756;47.408;18.940;2023-02-04T14:05:38;3.33;59.65
70336;SHT31;57756;47.408;18.940;2023-02-04T14:08:04;3.35;60.54
70336;SHT31;57756;47.408;18.940;2023-02-04T14:10:29;3.33;59.98
70336;SHT31;57756;47.408;18.940;2023-02-04T14:12:55;3.24;60.88
70336;SHT31;57756;47.408;18.940;2023-02-04T14:15:23;3.20;62.58
70336;SHT31;57756;47.408;18.940;2023-02-04T14:17:48;3.07;64.39
70336;SHT31;57756;47.408;18.940;2023-02-04T14:20:14;3.05;65.63
70336;SHT31;57756;47.408;18.940;2023-02-04T14:22:39;2.99;66.19
70336;SHT31;57756;47.408;18.940;2023-02-04T14:25:05;2.96;65.58
70336;SHT31;57756;47.408;18.940;2023-02-04T14:27:30;2.85;66.07
70336;SHT31;57756;47.408;18.940;2023-02-04T14:29:57;2.86;65.33
70336;SHT31;57756;47.408;18.940;2023-02-04T14:32:22;2.84;65.50
70336;SHT31;57756;47.408;18.940;2023-02-04T14:34:48;2.82;65.48
70336;SHT31;57756;47.408;18.940;2023-02-04T14:37:13;2.75;63.54
70336;SHT31;57756;47.408;18.940;2023-02-04T14:39:38;2.74;62.73
70336;SHT31;57756;47.408;18.940;2023-02-04T14:42:04;2.62;63.09
70336;SHT31;57756;47.408;18.940;2023-02-04T14:44:30;2.62;62.12
70336;SHT31;57756;47.408;18.940;2023-02-04T14:46:56;2.55;63.04
70336;SHT31;57756;47.408;18.940;2023-02-04T14:49:21;2.47;64.30
70336;SHT31;57756;47.408;18.940;2023-02-04T14:51:47;2.44;63.61
70336;SHT31;57756;47.408;18.940;2023-02-04T14:54:13;2.38;64.73
70336;SHT31;57756;47.408;18.940;2023-02-04T14:56:39;2.28;65.09
70336;SHT31;57756;47.408;18.940;2023-02-04T14:59:05;2.24;64.94
70336;SHT31;57756;47.408;18.940;2023-02-04T15:01:30;2.16;65.30
70336;SHT31;57756;47.408;18.940;2023-02-04T15:03:56;2.14;65.87
70336;SHT31;57756;47.408;18.940;2023-02-04T15:06:22;2.10;66.06
70336;SHT31;57756;47.408;18.940;2023-02-04T15:08:47;2.09;67.84
70336;SHT31;57756;47.408;18.940;2023-02-04T15:11:13;2.06;68.07
70336;SHT31;57756;47.408;18.940;2023-02-04T15:13:39;2.05;68.50
70336;SHT31;57756;47.408;18.940;2023-02-04T15:16:04;2.00;68.76
70336;SHT31;57756;47.408;18.940;2023-02-04T15:18:30;1.96;69.46
70336;SHT31;57756;47.408;18.940;2023-02-04T15:20:56;1.87;69.88
70336;SHT31;57756;47.408;18.940;2023-02-04T15:23:22;1.85;70.06
70336;SHT31;57756;47.408;18.940;2023-02-04T15:25:47;1.78;71.03
70336;SHT31;57756;47.408;18.940;2023-02-04T15:28:13;1.76;70.23
70336;SHT31;57756;47.408;18.940;2023-02-04T15:30:39;1.68;70.75
70336;SHT31;57756;47.408;18.940;2023-02-04T15:33:04;1.63;70.75
70336;SHT31;57756;47.408;18.940;2023-02-04T15:35:30;1.65;70.75